Time,TemperatureF,DewpointF,PressureIn,WindDirection,WindDirectionDegrees,WindSpeedMPH,WindSpeedGustMPH,Humidity,HourlyPrecipIn,Conditions,Clouds,dailyrainin,SolarRadiationWatts/m^2,SoftwareType,DateUTC
2014-08-28 00:02:00,55.0,54.0,-100.00,NW,304,1.0,7.0,95,0.00,,,0.00,0.000000,,2014-08-28 07:02:00,
2014-08-28 00:12:00,55.0,54.0,-100.00,NW,304,1.0,7.0,95,0.00,,,0.00,0.000000,,2014-08-28 07:12:00,
2014-08-28 00:22:00,55.0,54.0,-100.00,NW,304,1.0,7.0,95,0.00,,,0.00,0.000000,,2014-08-28 07:22:00,
2014-08-28 00:53:00,55.0,54.0,-100.00,West,263,1.0,7.0,95,0.00,,,0.00,0.000000,,2014-08-28 07:53:00,
2014-08-28 01:12:00,55.0,54.0,-100.00,West,263,1.0,7.0,95,0.00,,,0.00,0.000000,,2014-08-28 08:12:00,
2014-08-28 01:22:00,55.0,54.0,-100.00,West,263,1.0,7.0,95,0.00,,,0.00,0.000000,,2014-08-28 08:22:00,
2014-08-28 02:12:00,54.0,53.0,-100.00,North,-999,0.0,3.0,95,0.00,,,0.00,0.000000,,2014-08-28 09:12:00,
2014-08-28 02:22:00,54.0,53.0,-100.00,North,-999,0.0,3.0,95,0.00,,,0.00,0.000000,,2014-08-28 09:22:00,
2014-08-28 02:54:00,54.0,53.0,-100.00,NNW,331,3.0,6.0,96,0.00,,,0.00,0.000000,,2014-08-28 09:54:00,
2014-08-28 03:04:00,54.0,53.0,-100.00,NNW,331,3.0,6.0,96,0.00,,,0.00,0.000000,,2014-08-28 10:04:00,
2014-08-28 03:13:00,54.0,53.0,-100.00,NNW,331,3.0,6.0,96,0.00,,,0.00,0.000000,,2014-08-28 10:13:00,
2014-08-28 03:53:00,54.0,53.0,-100.00,North,-999,0.0,7.0,96,0.00,,,0.00,0.000000,,2014-08-28 10:53:00,
2014-08-28 04:04:00,54.0,53.0,-100.00,North,-999,0.0,7.0,96,0.00,,,0.00,0.000000,,2014-08-28 11:04:00,
2014-08-28 04:12:00,54.0,53.0,-100.00,North,-999,0.0,7.0,96,0.00,,,0.00,0.000000,,2014-08-28 11:12:00,
2014-08-28 04:23:00,54.0,53.0,-100.00,North,-999,0.0,7.0,96,0.00,,,0.00,0.000000,,2014-08-28 11:23:00,
2014-08-28 04:52:00,55.0,54.0,-100.00,SW,218,1.0,4.0,97,0.00,,,0.00,0.000000,,2014-08-28 11:52:00,
2014-08-28 05:02:00,55.0,54.0,-100.00,SW,218,1.0,4.0,97,0.00,,,0.00,0.000000,,2014-08-28 12:02:00,
2014-08-28 05:12:00,55.0,54.0,-100.00,SW,218,1.0,4.0,97,0.00,,,0.00,0.000000,,2014-08-28 12:12:00,
2014-08-28 05:52:00,55.0,54.0,-100.00,WSW,258,1.0,5.0,97,0.00,,,0.00,0.000000,,2014-08-28 12:52:00,
2014-08-28 06:11:00,55.0,54.0,-100.00,WSW,258,1.0,5.0,97,0.00,,,0.00,0.000000,,2014-08-28 13:11:00,
2014-08-28 06:22:00,55.0,54.0,-100.00,WSW,258,1.0,5.0,97,0.00,,,0.00,0.000000,,2014-08-28 13:22:00,
2014-08-28 06:53:00,55.0,54.0,-100.00,NNW,336,1.0,6.0,97,0.00,,,0.00,0.000000,,2014-08-28 13:53:00,
2014-08-28 07:12:00,55.0,54.0,-100.00,NNW,336,1.0,6.0,97,0.00,,,0.00,0.000000,,2014-08-28 14:12:00,
2014-08-28 07:22:00,55.0,54.0,-100.00,NNW,336,1.0,6.0,97,0.00,,,0.00,0.000000,,2014-08-28 14:22:00,
2014-08-28 07:52:00,55.0,54.0,-100.00,West,274,2.0,5.0,97,0.00,,,-99.99,10.000000,,2014-08-28 14:52:00,
2014-08-28 08:02:00,55.0,54.0,-100.00,West,274,2.0,5.0,97,0.00,,,-99.99,10.000000,,2014-08-28 15:02:00,
2014-08-28 08:22:00,55.0,54.0,-100.00,West,274,2.0,5.0,97,0.00,,,-99.99,10.000000,,2014-08-28 15:22:00,
2014-08-28 08:55:00,56.0,55.0,-100.00,NW,325,2.0,6.0,97,0.00,,,0.00,72.000000,,2014-08-28 15:55:00,
2014-08-28 09:04:00,56.0,55.0,-100.00,NW,325,2.0,6.0,97,0.00,,,0.00,72.000000,,2014-08-28 16:04:00,
2014-08-28 09:13:00,56.0,55.0,-100.00,NW,325,2.0,6.0,97,0.00,,,0.00,72.000000,,2014-08-28 16:13:00,
2014-08-28 09:24:00,56.0,55.0,-100.00,NW,325,2.0,6.0,97,0.00,,,0.00,72.000000,,2014-08-28 16:24:00,
2014-08-28 09:54:00,59.0,56.0,-100.00,NW,316,2.0,6.0,91,0.00,,,0.00,212.000000,,2014-08-28 16:54:00,
2014-08-28 10:03:00,59.0,56.0,-100.00,NW,316,2.0,6.0,91,0.00,,,0.00,212.000000,,2014-08-28 17:03:00,
2014-08-28 10:13:00,59.0,56.0,-100.00,NW,316,2.0,6.0,91,0.00,,,0.00,212.000000,,2014-08-28 17:13:00,
2014-08-28 10:23:00,59.0,56.0,-100.00,NW,316,2.0,6.0,91,0.00,,,0.00,212.000000,,2014-08-28 17:23:00,
2014-08-28 10:53:00,65.0,56.0,-100.00,NW,308,4.0,8.0,74,0.00,,,-99.99,538.000000,,2014-08-28 17:53:00,
2014-08-28 11:02:00,65.0,56.0,-100.00,NW,308,4.0,8.0,74,0.00,,,-99.99,538.000000,,2014-08-28 18:02:00,
2014-08-28 11:12:00,65.0,56.0,-100.00,NW,308,4.0,8.0,74,0.00,,,-99.99,538.000000,,2014-08-28 18:12:00,
2014-08-28 16:53:00,79.0,57.0,-100.00,NW,305,6.0,13.0,47,-99.99,,,0.00,676.000000,,2014-08-28 23:53:00,
2014-08-28 17:02:00,79.0,57.0,-100.00,NW,305,6.0,13.0,47,-99.99,,,0.00,676.000000,,2014-08-29 00:02:00,
2014-08-28 17:12:00,79.0,57.0,-100.00,NW,305,6.0,13.0,47,-99.99,,,0.00,676.000000,,2014-08-29 00:12:00,
2014-08-28 17:52:00,70.0,55.0,-100.00,NW,306,8.0,13.0,58,0.00,,,0.00,510.000000,,2014-08-29 00:52:00,
2014-08-28 18:12:00,70.0,55.0,-100.00,NW,306,8.0,13.0,58,0.00,,,0.00,510.000000,,2014-08-29 01:12:00,
2014-08-28 18:23:00,70.0,55.0,-100.00,NW,306,8.0,13.0,58,0.00,,,0.00,510.000000,,2014-08-29 01:23:00,
2014-08-28 19:02:00,67.0,55.0,-100.00,WNW,297,7.0,12.0,66,0.00,,,0.00,313.000000,,2014-08-29 02:02:00,
2014-08-28 19:22:00,67.0,55.0,-100.00,WNW,297,7.0,12.0,66,0.00,,,0.00,313.000000,,2014-08-29 02:22:00,
2014-08-28 20:03:00,61.0,53.0,-100.00,NW,319,7.0,12.0,76,0.00,,,0.00,87.000000,,2014-08-29 03:03:00,
2014-08-28 20:12:00,61.0,53.0,-100.00,NW,319,7.0,12.0,76,0.00,,,0.00,87.000000,,2014-08-29 03:12:00,
2014-08-28 20:22:00,61.0,53.0,-100.00,NW,319,7.0,12.0,76,0.00,,,0.00,87.000000,,2014-08-29 03:22:00,
2014-08-28 20:54:00,60.0,52.0,-100.00,NW,317,9.0,14.0,75,0.00,,,0.00,3.000000,,2014-08-29 03:54:00,
2014-08-28 21:04:00,60.0,52.0,-100.00,NW,317,9.0,14.0,75,0.00,,,0.00,3.000000,,2014-08-29 04:04:00,